METAR ET TAF INFORMATION
METAR FOR ENSD
ADDS - METARS form results

(1441 UTC 15 September 2019)
Data provider http://aviationweather.gov/metar/data/
 
METAR text: ENSD 151420Z 29015G28KT 250V330 9999 -SHRA FEW007 SCT024 BKN033 12/06 Q0995 RMK WIND 1138FT 26012G30KT
Conditions at: ENSD (SANDANE/ANDA , NO) observed 1420 UTC 15 September 2019
Temperature: 12.0°C (54°F)
Dewpoint: 6.0°C (43°F) [RH = 67%]
Pressure (altimeter): 29.38 inches Hg (995.0 mb)
Winds: from the WNW (290 degrees) at 17 MPH (15 knots; 7.7 m/s)
gusting to 32 MPH (28 knots; 14.4 m/s)
Visibility: 6 or more miles (10+ km)
Ceiling: 3300 feet AGL
Clouds: few clouds at 700 feet AGL
scattered clouds at 2400 feet AGL
broken clouds at 3300 feet AGL
Weather: -SHRA  (light rain showers)

METAR text: ENSD 151350Z 30016G27KT 260V340 9999 SHRA VV041 11/07 Q0995 RMK WIND 1138FT 28018G34KT
Conditions at: ENSD (SANDANE/ANDA , NO) observed 1350 UTC 15 September 2019
Temperature: 11.0°C (52°F)
Dewpoint: 7.0°C (45°F) [RH = 76%]
Pressure (altimeter): 29.38 inches Hg (995.0 mb)
Winds: from the WNW (300 degrees) at 18 MPH (16 knots; 8.2 m/s)
gusting to 31 MPH (27 knots; 13.9 m/s)
Visibility: 6 or more miles (10+ km)
Ceiling: indefinite ceiling with vertical visibility of 4100 feet AGL
Clouds: obscured sky
Weather: SHRA  (rain showers)

 AÉROPORT DE AÉROPORT

 INFORMATIONS DE PISTE
Piste 09 Longueur de la piste 2756 ft Largeur de la piste 98 ft
Élévation de la piste 181 ft Seuil de la piste déplacés 0 ft Runway heading 0
Piste 27 Longueur de la piste 2756 ft Largeur de la piste 98 ft
Élévation de la piste 179 ft Seuil de la piste déplacés 0 ft Runway heading 0

 AÉROPORT FRÉQUENCES

 SIDA DE NAVIGATION
Type NDB Nom Anda Féquence 288 KHZ



Powered by Virtual Airlines Manager [v2.6.2]